aviador You're here:

KLUK Decoded Metar

CINCINNATI in OH, USA
Report Time2017-05-23 13:53:00
UTC Time2017-05-23 14:45:25
Flight Rules vfr VFR
Wind050° at 06 kt
W.Decomp.*RWY 07: 5.8 kt HW 1.7 kt LCW
RWY 03: 5.5 kt HW 2.4 kt RCW
W.Rank050° ranks 7
Current wind is above 050° avg. (5.5)
Visibility9999 m
Phenomena:N/A
Clouds:N/A
Expected CloudBase > 2,000 ft AGL from Temp-Dew spread
CeilingNone
Temp18°C (ISA +4)
Dew Point13°C (73% RH)
AAT16.8°C
QNH1011 hPa
Density Alt1,250 ft
Elevation509 ft
Report Wrong Elevation
Raw Report
METAR KLUK 231353Z 05006KT 10SM CLR 18/13 A2986 RMK AO2 SLP108 T01780128=

Extra information for KLUK:More info

Metar Taf Metar & Taf Last 4 Metars F.Rules Stats Wind Profile Meteogram Temp Stats Airport Information Weather charts Add Link Nearby VenuesMetar ALERT Operation Metar Decoded Social comments

AIRNAV info for KLUK